createdAt,value
2022-10-01T00:05:33.367Z,13.3
2022-10-01T00:15:33.999Z,13.3
2022-10-01T00:35:34.854Z,13.3
2022-10-01T00:45:35.631Z,12.8
2022-10-01T00:55:35.724Z,12.2
2022-10-01T01:05:36.320Z,11.7
2022-10-01T01:35:38.849Z,11.1
2022-10-01T01:45:39.222Z,11
2022-10-01T02:05:40.325Z,10.8
2022-10-01T02:25:41.098Z,10.6
2022-10-01T02:35:41.797Z,10.6
2022-10-01T02:45:42.189Z,10.5
2022-10-01T02:55:42.843Z,10.5
2022-10-01T03:05:43.873Z,10.5
2022-10-01T03:15:44.208Z,10.6
2022-10-01T03:35:45.255Z,10.6
2022-10-01T04:25:48.006Z,10.6
2022-10-01T04:35:48.180Z,10.7
2022-10-01T04:45:48.806Z,10.7
2022-10-01T04:55:49.763Z,10.8
2022-10-01T05:25:51.811Z,10.9
2022-10-01T06:05:52.410Z,11
2022-10-01T06:15:53.138Z,11.1
2022-10-01T06:25:53.669Z,11.2
2022-10-01T06:35:54.404Z,11.3
2022-10-01T06:45:55.098Z,11.4
2022-10-01T07:05:55.735Z,11.7
2022-10-01T07:15:55.874Z,11.8
2022-10-01T07:25:56.824Z,11.9
2022-10-01T07:35:56.950Z,12
2022-10-01T07:45:57.896Z,12.1
2022-10-01T07:55:58.168Z,12.3
2022-10-01T08:05:58.571Z,12.5
2022-10-01T08:26:00.365Z,12.9
2022-10-01T08:56:02.506Z,13.4
2022-10-01T09:16:03.949Z,13.8
2022-10-01T10:16:06.875Z,14.9
2022-10-01T11:46:17.342Z,12.8
2022-10-01T12:16:18.176Z,12.5
2022-10-01T12:26:18.744Z,13.3
2022-10-01T12:36:19.523Z,14.3
2022-10-01T12:46:19.683Z,15.5
2022-10-01T12:56:20.215Z,16.1
2022-10-01T13:06:20.388Z,17
2022-10-01T13:16:21.425Z,18.2
2022-10-01T13:26:22.347Z,17.9
2022-10-01T13:36:22.659Z,18
2022-10-01T13:46:23.560Z,18.6
2022-10-01T13:56:24.301Z,18.8
2022-10-01T14:06:25.173Z,17.5
2022-10-01T14:16:26.063Z,18.2
2022-10-01T14:26:26.882Z,18.1
2022-10-01T14:56:29.053Z,18.3
2022-10-01T15:06:29.433Z,18.5
2022-10-01T15:36:32.346Z,18.2
2022-10-01T15:46:33.163Z,17.7
2022-10-01T15:56:33.344Z,16.7
2022-10-01T16:06:33.563Z,16.3
2022-10-01T16:16:34.013Z,16
2022-10-01T16:26:34.329Z,15.8
2022-10-01T16:36:34.987Z,15.6
2022-10-01T16:46:35.299Z,15.4
2022-10-01T16:56:35.460Z,15.2
2022-10-01T17:06:35.983Z,15
2022-10-01T17:16:36.786Z,15
2022-10-01T17:26:37.073Z,14.9
2022-10-01T17:36:37.402Z,14.7
2022-10-01T18:16:40.120Z,13.9
2022-10-01T18:36:40.115Z,13.5
2022-10-01T18:46:40.391Z,13.3
2022-10-01T18:56:40.580Z,13.2
2022-10-01T19:06:40.993Z,13.2
2022-10-01T19:16:41.179Z,13.3
2022-10-01T19:26:42.089Z,13.2
2022-10-01T19:36:42.950Z,13.1
2022-10-01T19:46:43.191Z,12.8
2022-10-01T19:56:43.569Z,12.7
2022-10-01T20:06:44.585Z,12.6
2022-10-01T20:16:45.294Z,12.5
2022-10-01T20:26:45.631Z,12.4
2022-10-01T20:36:46.243Z,12.3
2022-10-01T20:46:46.495Z,12.3
2022-10-01T20:56:47.212Z,12.3
2022-10-01T21:06:47.828Z,12.3
2022-10-01T21:16:48.714Z,12.2
2022-10-01T21:26:49.502Z,12.1
2022-10-01T21:36:49.699Z,12
2022-10-01T21:46:50.606Z,11.9
2022-10-01T21:56:51.299Z,11.8
2022-10-01T22:06:51.796Z,11.7
2022-10-01T22:16:51.980Z,11.6
2022-10-01T22:36:52.349Z,11.7
2022-10-01T22:46:53.346Z,11.9
2022-10-01T22:56:53.688Z,12
2022-10-01T23:06:54.146Z,12.1
2022-10-01T23:16:55.082Z,12.1
2022-10-01T23:26:55.205Z,12.1
2022-10-01T23:36:55.990Z,12.2
